createdAt,value
2018-11-05T00:00:07.313Z,101381.52
2018-11-05T00:00:24.948Z,101381.14
2018-11-05T00:00:39.088Z,101379.45
2018-11-05T00:00:52.022Z,101383.20
2018-11-05T00:01:04.541Z,101376.69
2018-11-05T00:01:17.403Z,101380.22
2018-11-05T00:01:31.538Z,101384.50
2018-11-05T00:01:45.485Z,101375.77
2018-11-05T00:01:59.523Z,101383.58
2018-11-05T00:02:12.778Z,101377.23
2018-11-05T00:02:25.696Z,101374.46
2018-11-05T00:02:40.421Z,101380.75
2018-11-05T00:02:54.879Z,101375.92
2018-11-05T00:03:08.327Z,101380.59
2018-11-05T00:03:20.974Z,101380.98
2018-11-05T00:03:33.743Z,101384.66
2018-11-05T00:03:47.275Z,101381.90
2018-11-05T00:03:59.374Z,101378.91
2018-11-05T00:04:13.112Z,101385.80
2018-11-05T00:04:26.861Z,101381.36
2018-11-05T00:04:39.985Z,101380.59
2018-11-05T00:04:52.484Z,101379.67
2018-11-05T00:05:06.184Z,101378.91
2018-11-05T00:05:19.759Z,101376.14
2018-11-05T00:05:32.629Z,101373.16
2018-11-05T00:05:45.983Z,101377.98
2018-11-05T00:05:59.323Z,101372.40
2018-11-05T00:06:12.936Z,101375.77
2018-11-05T00:06:25.677Z,101377.06
2018-11-05T00:06:38.611Z,101373.16
2018-11-05T00:06:52.248Z,101372.23
2018-11-05T00:07:06.706Z,101371.31
2018-11-05T00:07:18.755Z,101372.23
2018-11-05T00:07:32.619Z,101370.02
2018-11-05T00:07:46.487Z,101374.46
2018-11-05T00:08:01.063Z,101370.55
2018-11-05T00:08:16.821Z,101369.63
2018-11-05T00:08:30.353Z,101375.38
2018-11-05T00:08:45.565Z,101373.32
2018-11-05T00:08:59.375Z,101370.55
2018-11-05T00:09:13.364Z,101374.84
2018-11-05T00:09:26.750Z,101370.55
2018-11-05T00:09:39.735Z,101360.89
2018-11-05T00:09:52.207Z,101368.33
2018-11-05T00:10:04.639Z,101370.94
2018-11-05T00:10:18.457Z,101369.63
2018-11-05T00:10:30.852Z,101369.25
2018-11-05T00:10:44.411Z,101371.47
2018-11-05T00:10:57.885Z,101363.66
2018-11-05T00:11:11.269Z,101366.27
2018-11-05T00:11:25.419Z,101374.62
2018-11-05T00:11:39.620Z,101369.25
2018-11-05T00:11:52.963Z,101367.95
2018-11-05T00:12:05.969Z,101368.87
2018-11-05T00:12:18.636Z,101364.96
2018-11-05T00:12:30.408Z,101365.34
2018-11-05T00:12:44.239Z,101368.33
2018-11-05T00:12:57.900Z,101367.56
2018-11-05T00:13:11.675Z,101371.86
2018-11-05T00:13:26.111Z,101367.03
2018-11-05T00:13:37.889Z,101369.25
2018-11-05T00:13:50.887Z,101371.86
2018-11-05T00:14:08.154Z,101374.46
2018-11-05T00:14:21.355Z,101374.08
2018-11-05T00:14:35.508Z,101373.16
2018-11-05T00:14:47.722Z,101369.25
2018-11-05T00:15:00.460Z,101374.08
2018-11-05T00:15:16.509Z,101367.03
2018-11-05T00:15:28.503Z,101367.79
2018-11-05T00:15:40.577Z,101367.79
2018-11-05T00:15:52.524Z,101372.62
2018-11-05T00:16:04.399Z,101371.47
2018-11-05T00:16:16.208Z,101376.14
2018-11-05T00:16:28.017Z,101377.83
2018-11-05T00:16:39.905Z,101372.62
2018-11-05T00:16:53.400Z,101373.16
2018-11-05T00:17:05.195Z,101369.63
2018-11-05T00:17:18.099Z,101375.38
2018-11-05T00:17:30.138Z,101372.23
2018-11-05T00:17:41.933Z,101368.33
2018-11-05T00:17:53.724Z,101374.08
2018-11-05T00:18:05.528Z,101375.22
2018-11-05T00:18:17.757Z,101373.92
2018-11-05T00:18:29.938Z,101374.84
2018-11-05T00:18:42.480Z,101375.22
2018-11-05T00:18:54.665Z,101378.75
2018-11-05T00:19:08.219Z,101379.13
2018-11-05T00:19:20.448Z,101375.22
2018-11-05T00:19:32.964Z,101377.83
2018-11-05T00:19:45.354Z,101377.98
2018-11-05T00:19:57.537Z,101375.22
2018-11-05T00:20:10.848Z,101376.14
2018-11-05T00:20:23.960Z,101377.06
2018-11-05T00:20:36.655Z,101378.38
2018-11-05T00:20:48.742Z,101380.05
2018-11-05T00:21:01.029Z,101376.14
2018-11-05T00:21:13.212Z,101374.84
2018-11-05T00:21:25.501Z,101377.45
2018-11-05T00:21:37.484Z,101376.69
2018-11-05T00:21:49.774Z,101374.84
2018-11-05T00:22:02.058Z,101376.52
2018-11-05T00:22:14.251Z,101377.06
2018-11-05T00:22:26.633Z,101377.61
2018-11-05T00:22:38.923Z,101375.38
2018-11-05T00:22:51.319Z,101375.77
2018-11-05T00:23:03.602Z,101376.69
2018-11-05T00:23:15.791Z,101375.38
2018-11-05T00:23:27.952Z,101380.98
2018-11-05T00:23:40.160Z,101377.06
2018-11-05T00:23:52.549Z,101376.69
2018-11-05T00:24:04.938Z,101378.91
2018-11-05T00:24:17.434Z,101380.59
2018-11-05T00:24:29.741Z,101376.84
2018-11-05T00:24:42.007Z,101373.70
2018-11-05T00:24:54.403Z,101378.91
2018-11-05T00:25:06.793Z,101379.83
2018-11-05T00:25:19.095Z,101378.53
2018-11-05T00:25:31.572Z,101376.69
2018-11-05T00:25:43.758Z,101371.47
2018-11-05T00:25:56.146Z,101377.61
2018-11-05T00:26:08.640Z,101374.46
2018-11-05T00:26:21.132Z,101369.63
2018-11-05T00:26:34.036Z,101371.31
2018-11-05T00:26:46.323Z,101370.55
2018-11-05T00:26:59.382Z,101374.46
2018-11-05T00:27:12.514Z,101374.08
2018-11-05T00:27:25.055Z,101374.08
2018-11-05T00:27:38.454Z,101370.55
2018-11-05T00:27:50.834Z,101374.62
2018-11-05T00:28:03.064Z,101372.23
2018-11-05T00:28:15.206Z,101367.95
2018-11-05T00:28:28.691Z,101369.63
2018-11-05T00:28:41.856Z,101367.41
2018-11-05T00:28:55.508Z,101370.94
2018-11-05T00:29:08.205Z,101370.02
2018-11-05T00:29:21.468Z,101374.46
2018-11-05T00:29:34.056Z,101370.55
2018-11-05T00:29:46.346Z,101370.55
2018-11-05T00:29:58.734Z,101367.95
2018-11-05T00:30:12.732Z,101368.33
2018-11-05T00:30:25.052Z,101366.83
2018-11-05T00:30:37.243Z,101367.03
2018-11-05T00:30:49.422Z,101368.13
2018-11-05T00:31:01.710Z,101367.03
2018-11-05T00:31:13.659Z,101369.63
2018-11-05T00:31:25.878Z,101368.70
2018-11-05T00:31:38.168Z,101364.80
2018-11-05T00:31:50.211Z,101369.25
2018-11-05T00:32:02.331Z,101363.12
2018-11-05T00:32:14.582Z,101367.56
2018-11-05T00:32:27.013Z,101368.87
2018-11-05T00:32:39.511Z,101368.33
2018-11-05T00:32:52.253Z,101364.42
2018-11-05T00:33:05.018Z,101371.86
2018-11-05T00:33:18.527Z,101367.95
2018-11-05T00:33:30.804Z,101367.03
2018-11-05T00:33:43.507Z,101366.11
2018-11-05T00:33:56.174Z,101363.12
2018-11-05T00:34:08.791Z,101365.73
2018-11-05T00:34:21.290Z,101364.42
2018-11-05T00:34:33.965Z,101360.52
2018-11-05T00:34:46.584Z,101359.97
2018-11-05T00:34:59.385Z,101367.95
2018-11-05T00:35:12.084Z,101367.56
2018-11-05T00:35:24.768Z,101364.04
2018-11-05T00:35:37.411Z,101364.42
2018-11-05T00:35:50.323Z,101360.89
2018-11-05T00:36:02.946Z,101359.97
2018-11-05T00:36:15.673Z,101363.50
2018-11-05T00:36:28.177Z,101359.59
2018-11-05T00:36:40.861Z,101359.21
2018-11-05T00:36:53.451Z,101356.79
2018-11-05T00:37:06.221Z,101359.59
2018-11-05T00:37:18.726Z,101356.06
2018-11-05T00:37:31.225Z,101356.98
2018-11-05T00:37:43.943Z,101357.71
2018-11-05T00:37:56.741Z,101359.97
2018-11-05T00:38:09.546Z,101357.37
2018-11-05T00:38:22.270Z,101359.59
2018-11-05T00:38:35.248Z,101356.61
2018-11-05T00:38:47.868Z,101355.30
2018-11-05T00:39:00.743Z,101358.28
2018-11-05T00:39:13.603Z,101353.27
2018-11-05T00:39:25.937Z,101356.41
2018-11-05T00:39:38.706Z,101355.48
2018-11-05T00:39:51.399Z,101359.02
2018-11-05T00:40:04.129Z,101356.41
2018-11-05T00:40:17.239Z,101354.76
2018-11-05T00:40:29.860Z,101356.41
2018-11-05T00:40:42.395Z,101358.28
2018-11-05T00:40:54.921Z,101356.79
2018-11-05T00:41:07.542Z,101356.61
2018-11-05T00:41:21.100Z,101357.37
2018-11-05T00:41:34.310Z,101355.87
2018-11-05T00:41:47.288Z,101352.16
2018-11-05T00:42:00.048Z,101355.69
2018-11-05T00:42:11.889Z,101355.11
2018-11-05T00:42:23.645Z,101359.21
2018-11-05T00:42:36.199Z,101358.28
2018-11-05T00:42:47.955Z,101355.69
2018-11-05T00:43:00.014Z,101354.00
2018-11-05T00:43:12.052Z,101355.30
2018-11-05T00:43:24.576Z,101358.83
2018-11-05T00:43:36.363Z,101356.61
2018-11-05T00:43:48.119Z,101354.38
2018-11-05T00:43:59.861Z,101361.44
2018-11-05T00:44:11.656Z,101356.06
2018-11-05T00:44:23.847Z,101355.30
2018-11-05T00:44:35.641Z,101356.98
2018-11-05T00:44:47.413Z,101353.08
2018-11-05T00:44:59.178Z,101356.98
2018-11-05T00:45:11.859Z,101356.06
2018-11-05T00:45:24.068Z,101354.92
2018-11-05T00:45:35.892Z,101352.88
2018-11-05T00:45:47.909Z,101360.32
2018-11-05T00:45:59.576Z,101356.41
2018-11-05T00:46:11.337Z,101357.52
2018-11-05T00:46:23.138Z,101359.59
2018-11-05T00:46:34.944Z,101353.45
2018-11-05T00:46:46.973Z,101359.02
2018-11-05T00:46:58.846Z,101359.97
2018-11-05T00:47:10.729Z,101359.02
2018-11-05T00:47:22.544Z,101355.69
2018-11-05T00:47:34.397Z,101361.27
2018-11-05T00:47:46.144Z,101362.92
2018-11-05T00:47:57.900Z,101360.70
2018-11-05T00:48:09.664Z,101356.79
2018-11-05T00:48:21.410Z,101359.02
2018-11-05T00:48:33.240Z,101358.09
2018-11-05T00:48:45.006Z,101359.02
2018-11-05T00:48:56.749Z,101360.70
2018-11-05T00:49:08.519Z,101357.71
2018-11-05T00:49:20.265Z,101359.02
2018-11-05T00:49:32.416Z,101357.71
2018-11-05T00:49:44.280Z,101356.98
2018-11-05T00:49:56.038Z,101356.41
2018-11-05T00:50:07.832Z,101358.67
2018-11-05T00:50:19.589Z,101359.97
2018-11-05T00:50:31.359Z,101354.76
2018-11-05T00:50:43.139Z,101354.38
2018-11-05T00:50:54.911Z,101356.61
2018-11-05T00:51:06.680Z,101357.52
2018-11-05T00:51:18.438Z,101354.38
2018-11-05T00:51:30.446Z,101357.37
2018-11-05T00:51:42.636Z,101355.48
2018-11-05T00:51:54.412Z,101359.21
2018-11-05T00:52:06.168Z,101356.41
2018-11-05T00:52:18.257Z,101358.67
2018-11-05T00:52:30.010Z,101360.32
2018-11-05T00:52:41.808Z,101356.41
2018-11-05T00:52:53.571Z,101357.71
2018-11-05T00:53:05.343Z,101358.09
2018-11-05T00:53:17.097Z,101366.11
2018-11-05T00:53:28.845Z,101359.02
2018-11-05T00:53:40.617Z,101365.19
2018-11-05T00:53:52.418Z,101365.53
2018-11-05T00:54:04.411Z,101359.39
2018-11-05T00:54:16.194Z,101365.53
2018-11-05T00:54:27.962Z,101360.70
2018-11-05T00:54:39.728Z,101364.06
2018-11-05T00:54:51.624Z,101362.92
2018-11-05T00:55:03.381Z,101364.23
2018-11-05T00:55:15.126Z,101361.81
2018-11-05T00:55:26.887Z,101359.59
2018-11-05T00:55:38.893Z,101366.27
2018-11-05T00:55:50.682Z,101360.52
2018-11-05T00:56:02.448Z,101365.34
2018-11-05T00:56:14.211Z,101365.19
2018-11-05T00:56:25.978Z,101364.80
2018-11-05T00:56:37.745Z,101363.12
2018-11-05T00:56:49.499Z,101360.52
2018-11-05T00:57:01.276Z,101362.20
2018-11-05T00:57:13.033Z,101359.59
2018-11-05T00:57:24.791Z,101360.89
2018-11-05T00:57:36.715Z,101364.80
2018-11-05T00:57:48.485Z,101362.20
2018-11-05T00:58:00.236Z,101359.75
2018-11-05T00:58:12.001Z,101364.42
2018-11-05T00:58:23.774Z,101360.52
2018-11-05T00:58:35.513Z,101361.44
2018-11-05T00:58:47.284Z,101359.97
2018-11-05T00:58:59.108Z,101361.44
2018-11-05T00:59:10.862Z,101360.89
2018-11-05T00:59:22.629Z,101357.37
2018-11-05T00:59:34.437Z,101361.27
2018-11-05T00:59:46.180Z,101361.27
2018-11-05T00:59:58.106Z,101360.70
2018-11-05T01:00:09.845Z,101357.71
2018-11-05T01:00:21.601Z,101359.97
2018-11-05T01:00:33.347Z,101357.71
2018-11-05T01:00:45.090Z,101362.92
2018-11-05T01:00:56.832Z,101356.79
2018-11-05T01:01:08.604Z,101362.00
2018-11-05T01:01:20.377Z,101355.48
2018-11-05T01:01:32.127Z,101358.47
2018-11-05T01:01:43.884Z,101360.70
2018-11-05T01:01:55.640Z,101361.08
2018-11-05T01:02:07.382Z,101360.32
2018-11-05T01:02:19.163Z,101354.56
2018-11-05T01:02:31.085Z,101359.97
2018-11-05T01:02:43.094Z,101357.71
2018-11-05T01:02:54.846Z,101356.79
2018-11-05T01:03:06.592Z,101361.63
2018-11-05T01:03:18.384Z,101355.48
2018-11-05T01:03:30.125Z,101356.79
2018-11-05T01:03:41.881Z,101358.86
2018-11-05T01:03:53.679Z,101356.79
2018-11-05T01:04:05.506Z,101350.11
2018-11-05T01:04:17.280Z,101354.41
2018-11-05T01:04:29.042Z,101352.72
2018-11-05T01:04:40.800Z,101350.11
2018-11-05T01:04:52.559Z,101354.41
2018-11-05T01:05:04.368Z,101353.27
2018-11-05T01:05:17.000Z,101350.50
2018-11-05T01:05:35.231Z,101346.75
2018-11-05T01:05:46.971Z,101349.35
2018-11-05T01:05:58.713Z,101349.89
2018-11-05T01:06:10.467Z,101347.13
2018-11-05T01:06:22.210Z,101347.13
2018-11-05T01:06:33.958Z,101346.20
2018-11-05T01:06:45.744Z,101349.73
2018-11-05T01:06:57.489Z,101345.83
2018-11-05T01:07:09.258Z,101340.23
2018-11-05T01:07:21.018Z,101342.84
2018-11-05T01:07:32.868Z,101343.61
2018-11-05T01:07:45.264Z,101337.63
2018-11-05T01:07:57.035Z,101341.92
2018-11-05T01:08:08.796Z,101340.62
2018-11-05T01:08:20.551Z,101341.54
2018-11-05T01:08:32.298Z,101346.20
2018-11-05T01:08:44.375Z,101343.22
2018-11-05T01:08:56.126Z,101339.31
2018-11-05T01:09:08.223Z,101346.75
2018-11-05T01:09:19.960Z,101346.75
2018-11-05T01:09:31.702Z,101341.92
2018-11-05T01:09:43.454Z,101338.39
2018-11-05T01:09:55.204Z,101344.14
2018-11-05T01:10:06.978Z,101346.43
2018-11-05T01:10:18.740Z,101343.98
2018-11-05T01:10:30.476Z,101348.44
2018-11-05T01:10:42.224Z,101344.91
2018-11-05T01:10:53.980Z,101340.62
2018-11-05T01:11:05.721Z,101346.59
2018-11-05T01:11:17.490Z,101350.11
2018-11-05T01:11:29.258Z,101344.91
2018-11-05T01:11:41.012Z,101346.20
2018-11-05T01:11:52.772Z,101344.52
2018-11-05T01:12:04.537Z,101345.45
2018-11-05T01:12:16.288Z,101344.14
2018-11-05T01:12:28.050Z,101347.52
2018-11-05T01:12:39.799Z,101344.14
2018-11-05T01:12:51.558Z,101342.30
2018-11-05T01:13:03.294Z,101341.16
2018-11-05T01:13:15.060Z,101344.69
2018-11-05T01:13:26.805Z,101349.35
2018-11-05T01:13:38.565Z,101345.06
2018-11-05T01:13:50.340Z,101345.98
2018-11-05T01:14:02.147Z,101348.59
2018-11-05T01:14:13.925Z,101340.62
2018-11-05T01:14:25.693Z,101341.54
2018-11-05T01:14:37.447Z,101340.62
2018-11-05T01:14:49.185Z,101347.67
2018-11-05T01:15:00.940Z,101344.52
2018-11-05T01:15:13.995Z,101344.52
2018-11-05T01:15:25.745Z,101344.69
2018-11-05T01:15:37.495Z,101339.31
2018-11-05T01:15:49.248Z,101341.16
2018-11-05T01:16:01.014Z,101338.02
2018-11-05T01:16:12.768Z,101344.69
2018-11-05T01:16:24.517Z,101336.33
2018-11-05T01:16:36.262Z,101345.45
2018-11-05T01:16:48.022Z,101339.13
2018-11-05T01:16:59.844Z,101341.16
2018-11-05T01:17:11.614Z,101341.92
2018-11-05T01:17:23.381Z,101339.31
2018-11-05T01:17:35.134Z,101344.52
2018-11-05T01:17:46.898Z,101339.86
2018-11-05T01:17:58.667Z,101342.30
2018-11-05T01:18:10.432Z,101340.23
2018-11-05T01:18:22.172Z,101344.91
2018-11-05T01:18:33.911Z,101345.45
2018-11-05T01:18:45.712Z,101343.06
2018-11-05T01:18:57.457Z,101343.61
2018-11-05T01:19:09.210Z,101346.20
2018-11-05T01:19:21.025Z,101338.77
2018-11-05T01:19:32.792Z,101344.52
2018-11-05T01:19:44.538Z,101348.81
2018-11-05T01:19:56.300Z,101347.13
2018-11-05T01:20:08.306Z,101345.83
2018-11-05T01:20:20.083Z,101343.22
2018-11-05T01:20:31.828Z,101348.44
2018-11-05T01:20:43.576Z,101339.69
2018-11-05T01:20:55.336Z,101340.08
2018-11-05T01:21:07.282Z,101341.92
2018-11-05T01:21:19.055Z,101345.83
2018-11-05T01:21:30.804Z,101344.52
2018-11-05T01:21:42.538Z,101344.14
2018-11-05T01:21:54.303Z,101341.00
2018-11-05T01:22:06.066Z,101338.93
2018-11-05T01:22:17.814Z,101342.68
2018-11-05T01:22:29.566Z,101343.61
2018-11-05T01:22:41.306Z,101339.86
2018-11-05T01:22:53.057Z,101344.91
2018-11-05T01:23:04.816Z,101339.31
2018-11-05T01:23:16.588Z,101337.63
2018-11-05T01:23:28.348Z,101340.08
2018-11-05T01:23:40.115Z,101344.14
2018-11-05T01:23:51.896Z,101343.22
2018-11-05T01:24:03.692Z,101337.09
2018-11-05T01:24:15.456Z,101343.77
2018-11-05T01:24:27.374Z,101341.54
2018-11-05T01:24:39.132Z,101335.78
2018-11-05T01:24:50.900Z,101340.08
2018-11-05T01:25:02.868Z,101334.86
2018-11-05T01:25:14.620Z,101341.54
2018-11-05T01:25:26.380Z,101334.64
2018-11-05T01:25:38.136Z,101334.10
2018-11-05T01:25:49.884Z,101330.58
2018-11-05T01:26:01.636Z,101329.27
2018-11-05T01:26:13.431Z,101328.35
2018-11-05T01:26:25.320Z,101336.70
2018-11-05T01:26:37.084Z,101336.70
2018-11-05T01:26:48.864Z,101334.48
2018-11-05T01:27:00.604Z,101329.11
2018-11-05T01:27:12.369Z,101335.78
2018-11-05T01:27:24.144Z,101333.19
2018-11-05T01:27:36.428Z,101331.87
2018-11-05T01:27:48.184Z,101330.95
2018-11-05T01:27:59.947Z,101330.58
2018-11-05T01:28:11.712Z,101332.80
2018-11-05T01:28:23.478Z,101331.87
2018-11-05T01:28:35.240Z,101326.67
2018-11-05T01:28:46.986Z,101328.89
2018-11-05T01:28:58.784Z,101325.75
2018-11-05T01:29:10.537Z,101330.42
2018-11-05T01:29:22.616Z,101329.66
2018-11-05T01:29:34.396Z,101327.05
2018-11-05T01:29:46.170Z,101323.52
2018-11-05T01:29:57.949Z,101325.20
2018-11-05T01:30:09.712Z,101327.43
2018-11-05T01:30:21.466Z,101325.36
2018-11-05T01:30:33.226Z,101329.11
2018-11-05T01:30:44.984Z,101327.43
2018-11-05T01:30:56.751Z,101323.52
2018-11-05T01:31:08.506Z,101324.83
2018-11-05T01:31:20.250Z,101330.42
2018-11-05T01:31:32.000Z,101325.20
2018-11-05T01:31:43.738Z,101328.73
2018-11-05T01:31:55.498Z,101323.75
2018-11-05T01:32:07.238Z,101330.42
2018-11-05T01:32:19.008Z,101330.42
2018-11-05T01:32:30.760Z,101325.20
2018-11-05T01:32:42.542Z,101327.27
2018-11-05T01:32:54.356Z,101325.20
2018-11-05T01:33:06.107Z,101327.27
2018-11-05T01:33:17.874Z,101324.28
2018-11-05T01:33:29.686Z,101322.98
2018-11-05T01:33:41.444Z,101326.52
2018-11-05T01:33:53.200Z,101328.73
2018-11-05T01:34:04.962Z,101329.66
2018-11-05T01:34:16.718Z,101327.81
2018-11-05T01:34:28.462Z,101331.34
2018-11-05T01:34:40.263Z,101330.58
2018-11-05T01:34:52.019Z,101328.19
2018-11-05T01:35:03.766Z,101323.36
2018-11-05T01:35:15.511Z,101331.34
2018-11-05T01:35:27.273Z,101330.42
2018-11-05T01:35:39.016Z,101328.35
2018-11-05T01:40:30.736Z,101324.44
2018-11-05T01:40:42.492Z,101327.05
2018-11-05T01:40:54.246Z,101321.30
2018-11-05T01:41:06.012Z,101322.98
2018-11-05T01:41:17.778Z,101318.53
2018-11-05T01:41:29.514Z,101322.22
2018-11-05T01:41:41.268Z,101320.00
2018-11-05T01:41:53.034Z,101322.60
2018-11-05T01:42:06.138Z,101319.23
2018-11-05T01:42:17.915Z,101318.85
2018-11-05T01:42:29.677Z,101320.92
2018-11-05T01:42:41.509Z,101321.68
2018-11-05T01:42:53.261Z,101320.00
2018-11-05T01:43:05.010Z,101319.61
2018-11-05T01:43:16.771Z,101323.14
2018-11-05T01:43:28.566Z,101323.14
2018-11-05T01:43:40.341Z,101318.69
2018-11-05T01:43:52.262Z,101327.43
2018-11-05T01:44:04.006Z,101325.20
2018-11-05T01:44:15.763Z,101324.44
2018-11-05T01:44:27.502Z,101326.13
2018-11-05T01:44:39.245Z,101320.38
2018-11-05T01:44:50.985Z,101318.69
2018-11-05T01:45:02.728Z,101320.38
2018-11-05T01:45:15.109Z,101321.30
2018-11-05T01:45:26.857Z,101323.14
2018-11-05T01:45:38.637Z,101323.14
2018-11-05T01:45:50.379Z,101321.30
2018-11-05T01:46:02.135Z,101317.77
2018-11-05T01:46:13.882Z,101323.14
2018-11-05T01:46:25.657Z,101322.60
2018-11-05T01:46:37.899Z,101319.61
2018-11-05T01:46:49.646Z,101320.92
2018-11-05T01:47:01.416Z,101322.77
2018-11-05T01:47:13.171Z,101320.53
2018-11-05T01:47:24.952Z,101320.53
2018-11-05T01:47:36.721Z,101320.53
2018-11-05T01:47:48.470Z,101318.31
2018-11-05T01:48:00.233Z,101313.10
2018-11-05T01:48:12.006Z,101320.16
2018-11-05T01:48:23.761Z,101317.93
2018-11-05T01:48:35.512Z,101321.84
2018-11-05T01:48:47.264Z,101319.61
2018-11-05T01:48:59.007Z,101317.93
2018-11-05T01:49:10.770Z,101320.00
2018-11-05T01:49:22.528Z,101317.39
2018-11-05T01:49:34.340Z,101320.38
2018-11-05T01:49:46.095Z,101322.22
2018-11-05T01:49:57.847Z,101314.78
2018-11-05T01:50:10.229Z,101320.38
2018-11-05T01:50:21.981Z,101321.68
2018-11-05T01:50:33.718Z,101321.30
2018-11-05T01:50:45.501Z,101322.22
2018-11-05T01:50:57.255Z,101318.31
2018-11-05T01:51:10.049Z,101321.30
2018-11-05T01:51:21.792Z,101320.38
2018-11-05T01:51:33.531Z,101323.14
2018-11-05T01:51:45.281Z,101319.08
2018-11-05T01:51:57.018Z,101321.30
2018-11-05T01:52:09.069Z,101320.38
2018-11-05T01:52:20.829Z,101319.08
2018-11-05T01:52:32.580Z,101319.45
2018-11-05T01:52:44.649Z,101320.00
2018-11-05T01:52:56.412Z,101319.23
2018-11-05T01:53:08.166Z,101320.38
2018-11-05T01:53:19.914Z,101320.00
2018-11-05T01:53:31.651Z,101317.01
2018-11-05T01:53:43.408Z,101320.53
2018-11-05T01:53:55.174Z,101324.83
2018-11-05T01:54:06.920Z,101327.81
2018-11-05T01:54:18.673Z,101323.91
2018-11-05T01:54:30.432Z,101320.00
2018-11-05T01:54:42.186Z,101320.00
2018-11-05T01:54:53.935Z,101316.09
2018-11-05T01:55:05.691Z,101317.39
2018-11-05T01:55:17.447Z,101322.98
2018-11-05T01:55:29.210Z,101317.77
2018-11-05T01:55:40.971Z,101320.38
2018-11-05T01:55:52.751Z,101317.23
2018-11-05T01:56:04.493Z,101315.92
2018-11-05T01:56:16.249Z,101316.47
2018-11-05T01:56:28.020Z,101314.63
2018-11-05T01:56:39.761Z,101316.09
2018-11-05T01:56:51.529Z,101314.63
2018-11-05T01:57:03.416Z,101316.47
2018-11-05T01:57:15.149Z,101315.55
2018-11-05T01:57:26.922Z,101312.02
2018-11-05T01:57:39.464Z,101321.30
2018-11-05T01:57:51.228Z,101306.66
2018-11-05T01:58:02.986Z,101313.16
2018-11-05T01:58:14.738Z,101318.53
2018-11-05T01:58:26.512Z,101316.69
2018-11-05T01:58:38.268Z,101313.70
2018-11-05T01:58:50.026Z,101316.09
2018-11-05T01:59:01.788Z,101310.34
2018-11-05T01:59:13.540Z,101315.55
2018-11-05T01:59:25.665Z,101313.48
2018-11-05T01:59:37.406Z,101308.49
2018-11-05T01:59:49.149Z,101313.33
2018-11-05T02:00:00.898Z,101319.08
2018-11-05T02:00:12.872Z,101317.77
2018-11-05T02:00:24.626Z,101315.16
2018-11-05T02:00:36.415Z,101313.48
2018-11-05T02:00:48.168Z,101317.77
2018-11-05T02:00:59.946Z,101316.47
2018-11-05T02:01:11.702Z,101315.55
2018-11-05T02:01:23.451Z,101312.94
2018-11-05T02:01:35.192Z,101318.16
2018-11-05T02:01:46.954Z,101316.09
2018-11-05T02:01:58.706Z,101312.94
2018-11-05T02:02:10.446Z,101318.16
2018-11-05T02:02:22.187Z,101315.92
2018-11-05T02:02:34.359Z,101312.40
2018-11-05T02:02:46.987Z,101313.70
2018-11-05T02:02:58.730Z,101312.78
2018-11-05T02:03:10.493Z,101312.02
2018-11-05T02:03:22.256Z,101308.34
2018-11-05T02:03:34.028Z,101310.18
2018-11-05T02:03:45.802Z,101315.92
2018-11-05T02:03:57.565Z,101311.09
2018-11-05T02:04:09.318Z,101307.58
2018-11-05T02:04:21.065Z,101311.09
2018-11-05T02:04:32.834Z,101309.80
2018-11-05T02:04:44.583Z,101310.34
2018-11-05T02:04:56.339Z,101312.94
2018-11-05T02:05:08.691Z,101309.80
2018-11-05T02:05:20.444Z,101309.42
2018-11-05T02:05:32.197Z,101313.33
2018-11-05T02:05:43.938Z,101310.72
2018-11-05T02:05:55.679Z,101314.63
2018-11-05T02:06:07.444Z,101312.94
2018-11-05T02:06:19.239Z,101314.25
2018-11-05T02:06:31.008Z,101313.70
2018-11-05T02:06:42.764Z,101309.80
2018-11-05T02:06:54.511Z,101315.01
2018-11-05T02:07:06.300Z,101314.09
2018-11-05T02:07:18.059Z,101312.02
2018-11-05T02:07:29.816Z,101310.72
2018-11-05T02:07:43.114Z,101309.03
2018-11-05T02:07:54.851Z,101301.98
2018-11-05T02:08:06.605Z,101312.40
2018-11-05T02:08:18.360Z,101313.16
2018-11-05T02:08:30.133Z,101310.34
2018-11-05T02:08:41.896Z,101307.73
2018-11-05T02:08:53.639Z,101301.59
2018-11-05T02:09:05.392Z,101307.19
2018-11-05T02:09:17.167Z,101310.34
2018-11-05T02:09:29.000Z,101307.58
2018-11-05T02:09:40.748Z,101306.43
2018-11-05T02:09:52.544Z,101311.26
2018-11-05T02:10:04.365Z,101306.81
2018-11-05T02:10:17.262Z,101307.73
2018-11-05T02:10:29.113Z,101302.91
2018-11-05T02:10:40.769Z,101297.69
2018-11-05T02:10:52.511Z,101303.83
2018-11-05T02:11:04.270Z,101302.36
2018-11-05T02:11:16.087Z,101303.28
2018-11-05T02:11:27.859Z,101307.73
2018-11-05T02:11:39.631Z,101306.05
2018-11-05T02:11:51.402Z,101304.74
2018-11-05T02:12:03.155Z,101306.05
2018-11-05T02:12:14.931Z,101299.00
2018-11-05T02:12:26.704Z,101301.59
2018-11-05T02:12:38.535Z,101304.20
2018-11-05T02:12:50.285Z,101307.19
2018-11-05T02:13:02.037Z,101299.38
2018-11-05T02:13:13.853Z,101305.13
2018-11-05T02:13:25.625Z,101299.53
2018-11-05T02:13:37.329Z,101305.89
2018-11-05T02:13:49.085Z,101299.53
2018-11-05T02:14:00.848Z,101307.34
2018-11-05T02:14:12.630Z,101303.28
2018-11-05T02:14:24.388Z,101298.45
2018-11-05T02:14:36.458Z,101299.38
2018-11-05T02:14:48.204Z,101309.03
2018-11-05T02:14:59.956Z,101302.36
2018-11-05T02:15:12.138Z,101302.52
2018-11-05T02:15:23.891Z,101306.81
2018-11-05T02:15:35.681Z,101304.97
2018-11-05T02:15:47.470Z,101298.45
2018-11-05T02:15:59.272Z,101307.19
2018-11-05T02:16:11.075Z,101307.95
2018-11-05T02:16:22.771Z,101307.58
2018-11-05T02:16:34.538Z,101303.28
2018-11-05T02:16:46.298Z,101299.38
2018-11-05T02:16:58.044Z,101304.05
2018-11-05T02:17:09.827Z,101304.97
2018-11-05T02:17:21.579Z,101300.30
2018-11-05T02:17:33.366Z,101299.91
2018-11-05T02:17:46.066Z,101300.45
2018-11-05T02:17:57.805Z,101303.83
2018-11-05T02:18:09.586Z,101299.38
2018-11-05T02:18:21.374Z,101301.06
2018-11-05T02:18:33.170Z,101300.67
2018-11-05T02:18:44.934Z,101296.77
2018-11-05T02:18:56.699Z,101297.16
2018-11-05T02:19:08.494Z,101298.83
2018-11-05T02:19:20.220Z,101295.47
2018-11-05T02:19:31.987Z,101292.86
2018-11-05T02:19:44.225Z,101290.64
2018-11-05T02:19:55.969Z,101288.95
2018-11-05T02:20:07.870Z,101295.47
2018-11-05T02:20:19.630Z,101290.80
2018-11-05T02:20:31.391Z,101290.80
2018-11-05T02:20:43.152Z,101289.88
2018-11-05T02:20:54.902Z,101291.56
2018-11-05T02:21:06.656Z,101288.80
2018-11-05T02:21:18.404Z,101290.64
2018-11-05T02:21:30.209Z,101285.43
2018-11-05T02:21:41.961Z,101288.19
2018-11-05T02:21:53.712Z,101288.95
2018-11-05T02:22:05.477Z,101285.97
2018-11-05T02:22:17.231Z,101285.43
2018-11-05T02:22:28.974Z,101285.97
2018-11-05T02:22:40.722Z,101288.58
2018-11-05T02:22:52.495Z,101289.49
2018-11-05T02:23:04.270Z,101283.36